createdAt,value
2022-12-22T00:00:55.071Z,100.00
2022-12-22T00:06:15.651Z,100.00
2022-12-22T00:11:36.306Z,100.00
2022-12-22T00:16:58.724Z,100.00
2022-12-22T00:22:21.549Z,100.00
2022-12-22T00:27:48.733Z,100.00
2022-12-22T00:33:12.846Z,100.00
2022-12-22T00:38:39.417Z,100.00
2022-12-22T00:44:00.212Z,100.00
2022-12-22T00:49:21.159Z,100.00
2022-12-22T00:54:42.249Z,100.00
2022-12-22T01:00:03.029Z,100.00
2022-12-22T01:05:23.613Z,100.00
2022-12-22T01:10:45.442Z,100.00
2022-12-22T01:16:06.178Z,100.00
2022-12-22T01:21:28.332Z,100.00
2022-12-22T01:26:49.360Z,100.00
2022-12-22T01:32:10.478Z,100.00
2022-12-22T01:37:31.134Z,100.00
2022-12-22T01:42:53.269Z,100.00
2022-12-22T01:48:13.981Z,100.00
2022-12-22T01:53:38.981Z,100.00
2022-12-22T01:59:03.180Z,100.00
2022-12-22T02:04:24.743Z,100.00
2022-12-22T02:10:00.835Z,100.00
2022-12-22T02:15:44.390Z,100.00
2022-12-22T02:21:23.464Z,100.00
2022-12-22T02:26:54.443Z,100.00
2022-12-22T02:32:16.272Z,100.00
2022-12-22T02:37:56.681Z,100.00
2022-12-22T02:43:32.434Z,100.00
2022-12-22T02:49:02.910Z,100.00
2022-12-22T02:54:26.064Z,100.00
2022-12-22T02:59:46.673Z,100.00
2022-12-22T03:05:07.428Z,100.00
2022-12-22T03:10:28.831Z,100.00
2022-12-22T03:15:49.391Z,100.00
2022-12-22T03:21:10.043Z,100.00
2022-12-22T03:26:11.813Z,100.00
2022-12-22T03:31:13.848Z,100.00
2022-12-22T03:36:15.611Z,100.00
2022-12-22T03:41:35.870Z,100.00
2022-12-22T03:46:37.760Z,100.00
2022-12-22T03:51:45.510Z,100.00
2022-12-22T03:56:48.140Z,100.00
2022-12-22T04:01:53.414Z,100.00
2022-12-22T04:06:55.857Z,100.00
2022-12-22T04:12:16.112Z,100.00
2022-12-22T04:17:17.936Z,100.00
2022-12-22T04:22:19.605Z,100.00
2022-12-22T04:27:21.380Z,100.00
2022-12-22T04:32:23.252Z,100.00
2022-12-22T04:37:25.004Z,100.00
2022-12-22T04:42:26.752Z,100.00
2022-12-22T04:47:28.575Z,100.00
2022-12-22T04:52:30.426Z,100.00
2022-12-22T04:57:38.608Z,100.00
2022-12-22T05:02:42.368Z,100.00
2022-12-22T05:07:44.308Z,100.00
2022-12-22T05:12:55.145Z,100.00
2022-12-22T05:17:58.346Z,100.00
2022-12-22T05:23:00.131Z,100.00
2022-12-22T05:28:01.931Z,100.00
2022-12-22T05:33:03.605Z,100.00
2022-12-22T05:38:05.327Z,100.00
2022-12-22T05:43:07.097Z,100.00
2022-12-22T05:48:08.807Z,100.00
2022-12-22T05:53:10.591Z,100.00
2022-12-22T05:58:12.377Z,100.00
2022-12-22T06:03:14.216Z,100.00
2022-12-22T06:08:16.434Z,100.00
2022-12-22T06:13:18.192Z,100.00
2022-12-22T06:18:19.988Z,100.00
2022-12-22T06:23:22.750Z,100.00
2022-12-22T06:28:24.808Z,100.00
2022-12-22T06:33:26.808Z,100.00
2022-12-22T06:38:28.824Z,100.00
2022-12-22T06:43:30.741Z,100.00
2022-12-22T06:48:32.431Z,100.00
2022-12-22T06:53:34.140Z,100.00
2022-12-22T06:58:35.804Z,100.00
2022-12-22T07:03:37.538Z,100.00
2022-12-22T07:08:39.253Z,100.00
2022-12-22T07:13:41.648Z,100.00
2022-12-22T07:18:43.465Z,100.00
2022-12-22T07:23:45.197Z,100.00
2022-12-22T07:28:47.008Z,100.00
2022-12-22T07:33:48.792Z,100.00
2022-12-22T07:38:52.020Z,100.00
2022-12-22T07:43:55.269Z,100.00
2022-12-22T07:49:16.206Z,100.00
2022-12-22T07:54:18.758Z,100.00
2022-12-22T07:59:20.638Z,100.00
2022-12-22T08:04:22.701Z,100.00
2022-12-22T08:09:24.673Z,100.00
2022-12-22T08:14:26.714Z,100.00
2022-12-22T08:19:28.527Z,100.00
2022-12-22T08:24:30.677Z,100.00
2022-12-22T08:29:38.427Z,100.00
2022-12-22T08:34:40.653Z,100.00
2022-12-22T08:39:46.563Z,100.00
2022-12-22T08:44:53.416Z,100.00
2022-12-22T08:49:55.335Z,100.00
2022-12-22T08:54:57.189Z,100.00
2022-12-22T08:59:59.212Z,100.00
2022-12-22T09:05:00.993Z,100.00
2022-12-22T09:10:02.737Z,100.00
2022-12-22T09:15:06.166Z,100.00
2022-12-22T09:20:08.566Z,100.00
2022-12-22T09:25:10.977Z,100.00
2022-12-22T09:30:13.210Z,100.00
2022-12-22T09:35:14.990Z,100.00
2022-12-22T09:40:16.827Z,100.00
2022-12-22T09:45:21.766Z,100.00
2022-12-22T09:50:26.111Z,100.00
2022-12-22T09:55:43.486Z,100.00
2022-12-22T10:00:51.115Z,100.00
2022-12-22T10:06:17.383Z,100.00
2022-12-22T10:11:19.265Z,100.00
2022-12-22T10:16:27.437Z,100.00
2022-12-22T10:21:29.319Z,100.00
2022-12-22T10:26:34.289Z,100.00
2022-12-22T10:31:56.745Z,100.00
2022-12-22T10:37:01.463Z,100.00
2022-12-22T10:42:14.658Z,100.00
2022-12-22T10:47:24.480Z,100.00
2022-12-22T10:52:32.119Z,100.00
2022-12-22T10:57:34.446Z,100.00
2022-12-22T11:02:38.480Z,100.00
2022-12-22T11:07:42.750Z,100.00
2022-12-22T11:12:59.224Z,100.00
2022-12-22T11:18:14.540Z,100.00
2022-12-22T11:23:41.883Z,99.38
2022-12-22T11:28:49.544Z,98.86
2022-12-22T11:34:09.723Z,97.18
2022-12-22T11:39:15.510Z,97.80
2022-12-22T11:44:45.111Z,97.69
2022-12-22T11:51:01.384Z,97.38
2022-12-22T11:55:43.349Z,98.00
2022-12-22T12:01:19.074Z,98.03
2022-12-22T12:06:34.968Z,97.37
2022-12-22T12:11:53.941Z,97.09
2022-12-22T12:17:03.128Z,97.23
2022-12-22T12:22:08.758Z,97.59
2022-12-22T12:27:41.742Z,97.24
2022-12-22T12:32:55.647Z,97.09
2022-12-22T12:38:06.150Z,97.41
2022-12-22T12:43:16.286Z,98.10
2022-12-22T12:48:24.495Z,98.28
2022-12-22T12:53:28.355Z,98.49
2022-12-22T12:58:39.163Z,98.30
2022-12-22T13:09:39.806Z,98.90
2022-12-22T13:14:57.402Z,99.39
2022-12-22T13:19:59.565Z,99.38
2022-12-22T13:25:04.063Z,99.55
2022-12-22T13:30:11.249Z,99.74
2022-12-22T13:35:37.499Z,100.00
2022-12-22T13:40:44.106Z,100.00
2022-12-22T13:45:52.927Z,100.00
2022-12-22T13:50:58.366Z,100.00
2022-12-22T13:56:00.731Z,100.00
2022-12-22T14:01:10.285Z,100.00
2022-12-22T14:06:39.363Z,100.00
2022-12-22T14:11:51.221Z,100.00
2022-12-22T14:16:57.451Z,100.00
2022-12-22T14:22:04.539Z,100.00
2022-12-22T14:27:12.247Z,100.00
2022-12-22T14:32:39.772Z,100.00
2022-12-22T14:37:41.609Z,100.00
2022-12-22T14:42:44.033Z,100.00
2022-12-22T14:47:45.868Z,100.00
2022-12-22T14:52:51.722Z,100.00
2022-12-22T14:57:59.144Z,100.00
2022-12-22T15:03:06.364Z,100.00
2022-12-22T15:08:38.823Z,100.00
2022-12-22T15:13:41.930Z,100.00
2022-12-22T15:18:44.857Z,100.00
2022-12-22T15:23:47.257Z,100.00
2022-12-22T15:28:49.026Z,100.00
2022-12-22T15:33:50.949Z,100.00
2022-12-22T15:38:52.739Z,100.00
2022-12-22T15:43:57.836Z,100.00
2022-12-22T15:49:01.260Z,100.00
2022-12-22T15:54:04.510Z,100.00
2022-12-22T15:59:06.266Z,100.00
2022-12-22T16:04:08.146Z,100.00
2022-12-22T16:09:27.744Z,100.00
2022-12-22T16:14:35.258Z,100.00
2022-12-22T16:19:40.540Z,100.00
2022-12-22T16:24:45.757Z,100.00
2022-12-22T16:29:52.943Z,100.00
2022-12-22T16:35:13.139Z,100.00
2022-12-22T16:40:15.463Z,100.00
2022-12-22T16:45:28.704Z,100.00
2022-12-22T16:50:33.593Z,100.00
2022-12-22T16:55:36.220Z,100.00
2022-12-22T17:00:40.641Z,100.00
2022-12-22T17:05:46.274Z,100.00
2022-12-22T17:10:49.794Z,99.97
2022-12-22T17:15:51.648Z,99.98
2022-12-22T17:20:58.347Z,100.00
2022-12-22T17:26:03.565Z,100.00
2022-12-22T17:31:06.630Z,99.93
2022-12-22T17:36:18.736Z,100.00
2022-12-22T17:41:20.847Z,99.91
2022-12-22T17:46:22.990Z,99.93
2022-12-22T17:51:28.275Z,100.00
2022-12-22T17:56:30.991Z,100.00
2022-12-22T18:01:33.959Z,100.00
2022-12-22T18:06:38.839Z,100.00
2022-12-22T18:11:45.662Z,100.00
2022-12-22T18:16:48.113Z,100.00
2022-12-22T18:21:50.035Z,100.00
2022-12-22T18:26:51.929Z,100.00
2022-12-22T18:31:53.807Z,100.00
2022-12-22T18:36:55.683Z,100.00
2022-12-22T18:41:58.394Z,100.00
2022-12-22T18:47:00.350Z,100.00
2022-12-22T18:52:04.255Z,100.00
2022-12-22T18:57:13.865Z,100.00
2022-12-22T19:02:23.519Z,100.00
2022-12-22T19:07:26.797Z,100.00
2022-12-22T19:12:28.803Z,100.00
2022-12-22T19:17:30.929Z,100.00
2022-12-22T19:22:32.662Z,100.00
2022-12-22T19:27:34.440Z,100.00
2022-12-22T19:32:42.120Z,100.00
2022-12-22T19:37:46.159Z,100.00
2022-12-22T19:42:51.310Z,99.85
2022-12-22T19:47:54.127Z,100.00
2022-12-22T19:53:00.915Z,99.62
2022-12-22T19:58:03.124Z,99.43
2022-12-22T20:03:06.283Z,99.40
2022-12-22T20:08:08.292Z,99.23
2022-12-22T20:13:17.702Z,98.80
2022-12-22T20:18:22.536Z,99.24
2022-12-22T20:23:25.161Z,99.18
2022-12-22T20:28:31.356Z,98.93
2022-12-22T20:33:34.947Z,99.28
2022-12-22T20:38:41.109Z,99.52
2022-12-22T20:43:42.992Z,99.45
2022-12-22T20:48:50.671Z,99.43
2022-12-22T20:53:53.715Z,99.37
2022-12-22T20:58:56.257Z,99.74
2022-12-22T21:03:58.169Z,99.37
2022-12-22T21:09:01.318Z,99.49
2022-12-22T21:14:03.466Z,99.84
2022-12-22T21:19:05.573Z,99.88
2022-12-22T21:24:07.480Z,99.90
2022-12-22T21:29:16.126Z,99.99
2022-12-22T21:34:18.434Z,100.00
2022-12-22T21:39:33.360Z,100.00
2022-12-22T21:44:35.805Z,100.00
2022-12-22T21:49:37.663Z,100.00
2022-12-22T21:54:39.563Z,100.00
2022-12-22T21:59:41.328Z,100.00
2022-12-22T22:04:46.738Z,100.00
2022-12-22T22:09:53.832Z,100.00
2022-12-22T22:14:56.118Z,100.00
2022-12-22T22:19:58.041Z,100.00
2022-12-22T22:24:59.821Z,100.00
2022-12-22T22:30:01.641Z,100.00
2022-12-22T22:35:05.091Z,100.00
2022-12-22T22:40:11.737Z,100.00
2022-12-22T22:45:15.616Z,100.00
2022-12-22T22:50:19.000Z,100.00
2022-12-22T22:55:20.941Z,100.00
2022-12-22T23:00:22.964Z,100.00
2022-12-22T23:05:24.702Z,100.00
2022-12-22T23:10:26.581Z,100.00
2022-12-22T23:15:28.273Z,100.00
2022-12-22T23:20:29.993Z,100.00
2022-12-22T23:25:31.872Z,100.00
2022-12-22T23:30:33.561Z,100.00
2022-12-22T23:35:37.197Z,100.00
2022-12-22T23:40:55.700Z,100.00
2022-12-22T23:45:57.891Z,100.00
2022-12-22T23:50:59.889Z,100.00
2022-12-22T23:56:01.947Z,100.00
